createdAt,value
2023-04-23T00:00:07.087Z,29.20
2023-04-23T00:02:34.371Z,28.42
2023-04-23T00:05:06.062Z,26.88
2023-04-23T00:07:36.257Z,24.95
2023-04-23T00:10:05.558Z,27.33
2023-04-23T00:12:32.655Z,25.33
2023-04-23T00:15:01.065Z,28.25
2023-04-23T00:17:27.886Z,27.92
2023-04-23T00:19:54.299Z,26.65
2023-04-23T00:22:20.912Z,26.88
2023-04-23T00:24:47.294Z,29.63
2023-04-23T00:27:13.736Z,32.45
2023-04-23T00:29:40.691Z,30.98
2023-04-23T00:32:07.825Z,29.88
2023-04-23T00:34:34.327Z,27.52
2023-04-23T00:37:00.741Z,28.10
2023-04-23T00:39:27.141Z,25.75
2023-04-23T00:41:53.556Z,30.45
2023-04-23T00:44:20.033Z,26.15
2023-04-23T00:46:46.871Z,25.75
2023-04-23T00:49:14.029Z,35.80
2023-04-23T00:51:40.407Z,29.50
2023-04-23T00:54:07.244Z,34.58
2023-04-23T00:56:33.794Z,33.53
2023-04-23T00:59:02.645Z,30.05
2023-04-23T01:01:30.240Z,29.23
2023-04-23T01:03:57.652Z,32.92
2023-04-23T01:06:25.171Z,34.33
2023-04-23T01:08:51.646Z,32.38
2023-04-23T01:11:18.072Z,29.75
2023-04-23T01:13:44.466Z,31.92
2023-04-23T01:16:11.386Z,33.50
2023-04-23T01:18:37.907Z,30.67
2023-04-23T01:21:05.480Z,29.85
2023-04-23T01:23:31.964Z,30.77
2023-04-23T01:25:58.917Z,30.70
2023-04-23T01:28:25.950Z,32.92
2023-04-23T01:30:52.748Z,33.42
2023-04-23T01:33:19.377Z,31.05
2023-04-23T01:35:47.533Z,29.58
2023-04-23T01:38:14.586Z,29.42
2023-04-23T01:40:41.028Z,32.40
2023-04-23T01:43:07.584Z,31.63
2023-04-23T01:45:34.201Z,31.73
2023-04-23T01:48:01.104Z,30.45
2023-04-23T01:50:29.749Z,31.60
2023-04-23T01:52:56.314Z,33.60
2023-04-23T01:55:23.655Z,32.20
2023-04-23T01:57:51.095Z,34.25
2023-04-23T02:00:18.052Z,32.00
2023-04-23T02:02:45.086Z,33.90
2023-04-23T02:05:16.367Z,35.05
2023-04-23T02:10:11.008Z,30.10
2023-04-23T02:12:38.239Z,33.15
2023-04-23T02:15:06.610Z,32.50
2023-04-23T02:17:33.308Z,34.70
2023-04-23T02:19:59.752Z,32.92
2023-04-23T02:22:26.477Z,34.17
2023-04-23T02:24:53.048Z,33.28
2023-04-23T02:27:20.461Z,35.50
2023-04-23T02:29:48.344Z,39.00
2023-04-23T02:32:15.361Z,33.50
2023-04-23T02:34:42.205Z,39.38
2023-04-23T02:37:08.920Z,36.42
2023-04-23T02:39:35.425Z,38.10
2023-04-23T02:42:01.940Z,38.88
2023-04-23T02:44:28.326Z,37.10
2023-04-23T02:46:54.763Z,34.55
2023-04-23T02:49:21.246Z,36.30
2023-04-23T02:51:47.732Z,38.08
2023-04-23T02:54:14.268Z,39.05
2023-04-23T02:56:40.812Z,36.63
2023-04-23T02:59:08.379Z,36.22
2023-04-23T03:01:34.866Z,34.67
2023-04-23T03:04:01.956Z,35.00
2023-04-23T03:06:28.942Z,33.58
2023-04-23T03:08:56.048Z,35.95
2023-04-23T03:11:22.669Z,34.67
2023-04-23T03:13:49.251Z,37.15
2023-04-23T03:16:16.017Z,38.83
2023-04-23T03:18:42.401Z,36.38
2023-04-23T03:21:08.818Z,34.53
2023-04-23T03:23:36.197Z,35.67
2023-04-23T03:26:02.573Z,37.38
2023-04-23T03:28:29.331Z,38.10
2023-04-23T03:30:56.551Z,34.65
2023-04-23T03:33:22.973Z,38.92
2023-04-23T03:35:49.392Z,38.28
2023-04-23T03:38:15.806Z,35.58
2023-04-23T03:40:42.209Z,36.28
2023-04-23T03:43:08.592Z,34.53
2023-04-23T03:45:35.088Z,35.75
2023-04-23T03:48:01.513Z,35.38
2023-04-23T03:50:27.989Z,35.55
2023-04-23T03:52:54.406Z,32.65
2023-04-23T03:55:21.099Z,33.85
2023-04-23T03:57:47.518Z,35.50
2023-04-23T04:00:14.620Z,35.45
2023-04-23T04:02:41.166Z,37.22
2023-04-23T04:05:09.318Z,35.88
2023-04-23T04:07:37.041Z,34.80
2023-04-23T04:10:05.638Z,34.33
2023-04-23T04:12:32.276Z,36.45
2023-04-23T04:14:59.077Z,34.53
2023-04-23T04:17:25.622Z,36.10
2023-04-23T04:19:52.214Z,38.22
2023-04-23T04:22:18.719Z,32.85
2023-04-23T04:24:47.379Z,32.75
2023-04-23T04:27:15.053Z,39.10
2023-04-23T04:29:41.473Z,33.90
2023-04-23T04:32:09.385Z,32.30
2023-04-23T04:34:38.255Z,32.05
2023-04-23T04:37:04.932Z,32.90
2023-04-23T04:39:31.403Z,31.77
2023-04-23T04:41:59.839Z,31.52
2023-04-23T04:44:26.387Z,32.78
2023-04-23T04:46:53.711Z,29.02
2023-04-23T04:49:21.796Z,31.48
2023-04-23T04:51:48.221Z,31.73
2023-04-23T04:54:14.629Z,32.80
2023-04-23T04:56:41.118Z,31.88
2023-04-23T04:59:07.559Z,31.83
2023-04-23T05:01:34.136Z,30.77
2023-04-23T05:04:00.981Z,33.35
2023-04-23T05:06:28.633Z,30.65
2023-04-23T05:08:55.313Z,31.17
2023-04-23T05:11:21.789Z,30.83
2023-04-23T05:13:48.728Z,31.25
2023-04-23T05:16:15.703Z,31.00
2023-04-23T05:18:42.649Z,29.63
2023-04-23T05:21:09.187Z,29.98
2023-04-23T05:23:36.277Z,29.67
2023-04-23T05:26:03.614Z,28.25
2023-04-23T05:28:31.302Z,30.23
2023-04-23T05:30:58.507Z,33.97
2023-04-23T05:33:30.735Z,30.80
2023-04-23T05:35:59.725Z,31.75
2023-04-23T05:38:26.366Z,30.70
2023-04-23T05:40:52.791Z,33.50
2023-04-23T05:43:19.305Z,37.75
2023-04-23T05:45:45.851Z,28.48
2023-04-23T05:48:12.402Z,30.13
2023-04-23T05:50:38.927Z,27.60
2023-04-23T05:53:05.367Z,28.90
2023-04-23T05:55:31.840Z,27.73
2023-04-23T05:57:58.250Z,28.48
2023-04-23T06:00:24.650Z,26.50
2023-04-23T06:02:51.174Z,25.77
2023-04-23T06:05:18.095Z,26.30
2023-04-23T06:07:44.631Z,25.92
2023-04-23T06:10:11.709Z,26.73
2023-04-23T06:12:42.188Z,26.05
2023-04-23T06:15:09.683Z,29.10
2023-04-23T06:17:36.922Z,27.15
2023-04-23T06:20:05.112Z,25.33
2023-04-23T06:22:32.567Z,27.63
2023-04-23T06:24:59.140Z,26.38
2023-04-23T06:27:27.000Z,28.58
2023-04-23T06:29:53.448Z,28.10
2023-04-23T06:32:20.783Z,24.80
2023-04-23T06:35:00.125Z,23.25
2023-04-23T06:37:29.845Z,24.67
2023-04-23T06:39:56.710Z,27.08
2023-04-23T06:42:23.569Z,28.92
2023-04-23T06:44:51.772Z,25.77
2023-04-23T06:47:19.362Z,25.88
2023-04-23T06:49:45.956Z,24.60
2023-04-23T06:52:12.427Z,24.65
2023-04-23T06:54:38.850Z,24.42
2023-04-23T06:57:05.681Z,25.45
2023-04-23T06:59:32.142Z,23.33
2023-04-23T07:01:58.632Z,35.65
2023-04-23T07:04:25.349Z,22.48
2023-04-23T07:06:51.847Z,23.73
2023-04-23T07:09:18.277Z,22.98
2023-04-23T07:11:44.902Z,21.88
2023-04-23T07:14:11.465Z,22.38
2023-04-23T07:16:38.074Z,23.33
2023-04-23T07:19:04.466Z,23.70
2023-04-23T07:21:30.988Z,22.65
2023-04-23T07:23:59.759Z,26.60
2023-04-23T07:26:27.313Z,23.40
2023-04-23T07:28:53.725Z,22.23
2023-04-23T07:31:20.622Z,22.48
2023-04-23T07:33:47.581Z,24.20
2023-04-23T07:36:14.400Z,26.17
2023-04-23T07:38:41.231Z,22.10
2023-04-23T07:41:07.661Z,27.48
2023-04-23T07:43:34.103Z,24.40
2023-04-23T07:46:00.660Z,22.58
2023-04-23T07:48:27.089Z,23.58
2023-04-23T07:50:53.927Z,25.60
2023-04-23T07:53:20.420Z,26.35
2023-04-23T07:55:46.788Z,24.98
2023-04-23T07:58:13.216Z,25.75
2023-04-23T08:00:39.651Z,22.58
2023-04-23T08:03:06.124Z,24.63
2023-04-23T08:05:32.719Z,25.15
2023-04-23T08:07:59.187Z,26.13
2023-04-23T08:10:25.576Z,27.83
2023-04-23T08:12:51.957Z,29.42
2023-04-23T08:15:18.357Z,25.52
2023-04-23T08:17:44.839Z,26.30
2023-04-23T08:20:11.408Z,31.90
2023-04-23T08:22:37.875Z,27.63
2023-04-23T08:25:04.694Z,27.88
2023-04-23T08:27:31.212Z,25.10
2023-04-23T08:29:57.673Z,27.50
2023-04-23T08:32:24.413Z,27.33
2023-04-23T08:34:50.972Z,27.25
2023-04-23T08:37:29.758Z,29.65
2023-04-23T08:39:57.246Z,27.33
2023-04-23T08:43:02.072Z,30.05
2023-04-23T08:45:30.484Z,30.52
2023-04-23T08:48:02.210Z,28.67
2023-04-23T08:50:30.007Z,29.20
2023-04-23T08:52:58.031Z,32.70
2023-04-23T08:55:25.391Z,28.40
2023-04-23T08:57:52.275Z,33.55
2023-04-23T09:00:21.273Z,31.50
2023-04-23T09:02:49.059Z,29.58
2023-04-23T09:05:17.828Z,29.45
2023-04-23T09:07:44.516Z,30.17
2023-04-23T09:10:13.398Z,27.95
2023-04-23T09:12:43.010Z,30.42
2023-04-23T09:15:10.996Z,28.08
2023-04-23T09:17:45.654Z,29.58
2023-04-23T09:20:13.880Z,29.77
2023-04-23T09:22:47.971Z,27.70
2023-04-23T09:25:17.987Z,34.60
2023-04-23T09:27:45.639Z,30.80
2023-04-23T09:30:13.111Z,30.50
2023-04-23T09:32:42.296Z,28.25
2023-04-23T09:35:11.102Z,29.77
2023-04-23T09:37:48.495Z,25.63
2023-04-23T09:40:20.404Z,34.35
2023-04-23T09:42:49.730Z,30.08
2023-04-23T09:45:17.038Z,32.83
2023-04-23T09:47:51.548Z,32.83
2023-04-23T09:50:18.880Z,29.60
2023-04-23T09:52:45.739Z,34.50
2023-04-23T09:55:21.561Z,30.58
2023-04-23T09:57:48.674Z,29.67
2023-04-23T10:00:19.255Z,34.35
2023-04-23T10:02:49.339Z,29.60
2023-04-23T10:05:24.926Z,29.65
2023-04-23T10:07:57.628Z,30.50
2023-04-23T10:10:25.094Z,28.50
2023-04-23T10:12:55.352Z,27.05
2023-04-23T10:15:31.357Z,27.67
2023-04-23T10:17:59.244Z,30.63
2023-04-23T10:20:25.946Z,23.02
2023-04-23T10:22:54.723Z,29.15
2023-04-23T10:25:22.825Z,21.05
2023-04-23T10:27:54.431Z,24.20
2023-04-23T10:30:22.777Z,24.42
2023-04-23T10:32:50.418Z,26.50
2023-04-23T10:35:17.626Z,24.15
2023-04-23T10:37:46.376Z,25.30
2023-04-23T10:40:15.027Z,28.77
2023-04-23T10:42:43.520Z,23.88
2023-04-23T10:47:48.645Z,26.58
2023-04-23T10:50:29.668Z,24.10
2023-04-23T10:55:29.345Z,22.77
2023-04-23T10:57:59.937Z,27.13
2023-04-23T11:00:28.928Z,24.73
2023-04-23T11:02:56.214Z,24.90
2023-04-23T11:05:25.494Z,24.75
2023-04-23T11:10:54.208Z,24.08
2023-04-23T11:13:23.424Z,20.58
2023-04-23T11:16:13.328Z,24.10
2023-04-23T11:19:03.712Z,23.30
2023-04-23T11:22:01.405Z,21.48
2023-04-23T11:24:29.595Z,20.23
2023-04-23T11:26:56.578Z,21.13
2023-04-23T11:29:25.047Z,19.00
2023-04-23T11:32:01.863Z,19.52
2023-04-23T11:34:29.348Z,18.98
2023-04-23T11:36:58.884Z,16.77
2023-04-23T11:39:25.852Z,18.13
2023-04-23T11:41:52.447Z,20.25
2023-04-23T11:44:21.208Z,17.45
2023-04-23T11:46:49.354Z,15.02
2023-04-23T11:49:17.041Z,18.10
2023-04-23T11:51:44.683Z,17.20
2023-04-23T11:54:12.102Z,15.75
2023-04-23T11:56:38.579Z,14.98
2023-04-23T11:59:06.009Z,13.20
2023-04-23T12:01:53.342Z,15.98
2023-04-23T12:04:25.052Z,15.30
2023-04-23T12:06:53.658Z,15.20
2023-04-23T12:09:22.080Z,12.82
2023-04-23T12:11:50.959Z,12.65
2023-04-23T12:14:20.750Z,15.38
2023-04-23T12:16:52.321Z,14.85
2023-04-23T12:19:21.120Z,15.50
2023-04-23T12:21:54.603Z,13.80
2023-04-23T12:24:22.692Z,15.05
2023-04-23T12:26:54.352Z,13.80
2023-04-23T12:29:22.982Z,15.60
2023-04-23T12:31:52.110Z,14.60
2023-04-23T12:34:20.217Z,14.65
2023-04-23T12:36:55.295Z,14.77
2023-04-23T12:39:21.859Z,14.55
2023-04-23T12:41:53.766Z,17.27
2023-04-23T12:44:20.914Z,17.10
2023-04-23T12:46:57.346Z,15.88
2023-04-23T12:49:25.074Z,18.40
2023-04-23T12:51:52.685Z,17.58
2023-04-23T12:54:19.547Z,15.48
2023-04-23T12:56:46.038Z,19.25
2023-04-23T12:59:12.501Z,15.50
2023-04-23T13:01:38.930Z,14.88
2023-04-23T13:04:05.816Z,17.88
2023-04-23T13:06:33.198Z,14.75
2023-04-23T13:09:02.224Z,15.40
2023-04-23T13:11:29.011Z,14.38
2023-04-23T13:13:55.496Z,14.23
2023-04-23T13:16:22.044Z,15.05
2023-04-23T13:18:51.519Z,11.82
2023-04-23T13:21:18.724Z,13.50
2023-04-23T13:23:45.291Z,15.68
2023-04-23T13:26:11.827Z,14.85
2023-04-23T13:28:38.557Z,13.05
2023-04-23T13:31:05.443Z,15.55
2023-04-23T13:33:32.154Z,13.57
2023-04-23T13:36:01.187Z,16.15
2023-04-23T13:38:28.446Z,13.20
2023-04-23T13:40:54.876Z,14.23
2023-04-23T13:43:21.355Z,11.88
2023-04-23T13:45:47.873Z,14.98
2023-04-23T13:48:15.410Z,14.27
2023-04-23T13:50:42.613Z,14.02
2023-04-23T13:53:10.582Z,13.52
2023-04-23T13:55:37.536Z,15.70
2023-04-23T13:58:05.375Z,15.57
2023-04-23T14:00:31.874Z,14.02
2023-04-23T14:02:58.379Z,15.30
2023-04-23T14:05:25.191Z,17.08
2023-04-23T14:07:51.890Z,14.85
2023-04-23T14:10:18.826Z,16.73
2023-04-23T14:12:46.764Z,17.92
2023-04-23T14:15:13.542Z,14.98
2023-04-23T14:17:42.834Z,20.92
2023-04-23T14:20:10.326Z,18.33
2023-04-23T14:22:36.961Z,15.93
2023-04-23T14:25:23.407Z,20.98
2023-04-23T14:27:51.406Z,19.05
2023-04-23T14:30:21.672Z,17.83
2023-04-23T14:32:49.913Z,17.08
2023-04-23T14:35:17.395Z,20.48
2023-04-23T14:37:45.709Z,20.13
2023-04-23T14:40:15.751Z,18.95
2023-04-23T14:42:42.240Z,18.10
2023-04-23T14:45:09.203Z,16.83
2023-04-23T14:47:35.956Z,15.75
2023-04-23T14:50:02.649Z,18.55
2023-04-23T14:52:29.850Z,17.15
2023-04-23T14:54:56.947Z,18.80
2023-04-23T14:57:23.634Z,16.88
2023-04-23T14:59:50.212Z,17.48
2023-04-23T15:02:16.800Z,17.77
2023-04-23T15:04:43.506Z,23.10
2023-04-23T15:07:10.392Z,14.80
2023-04-23T15:09:37.054Z,16.95
2023-04-23T15:12:26.398Z,19.38
2023-04-23T15:14:55.582Z,19.17
2023-04-23T15:17:22.304Z,18.70
2023-04-23T15:19:49.131Z,19.63
2023-04-23T15:22:15.750Z,22.27
2023-04-23T15:24:42.319Z,18.25
2023-04-23T15:27:11.969Z,18.00
2023-04-23T15:29:38.468Z,17.05
2023-04-23T15:32:05.279Z,16.98
2023-04-23T15:34:32.170Z,15.40
2023-04-23T15:36:58.903Z,17.17
2023-04-23T15:39:26.989Z,16.88
2023-04-23T15:41:53.947Z,15.35
2023-04-23T15:44:21.120Z,18.65
2023-04-23T15:46:47.858Z,20.73
2023-04-23T15:49:14.683Z,17.65
2023-04-23T15:51:43.941Z,17.88
2023-04-23T15:54:10.796Z,18.10
2023-04-23T15:56:37.966Z,20.02
2023-04-23T15:59:05.619Z,20.25
2023-04-23T16:01:34.724Z,18.08
2023-04-23T16:06:35.300Z,14.55
2023-04-23T16:09:10.304Z,16.65
2023-04-23T16:11:39.655Z,18.35
2023-04-23T16:14:07.095Z,19.75
2023-04-23T16:16:34.253Z,13.93
2023-04-23T16:19:04.876Z,13.98
2023-04-23T16:21:32.167Z,23.13
2023-04-23T16:24:02.430Z,19.27
2023-04-23T16:26:33.222Z,17.65
2023-04-23T16:34:00.128Z,14.75
2023-04-23T16:36:30.564Z,19.15
2023-04-23T16:38:58.972Z,15.60
2023-04-23T16:41:25.414Z,12.85
2023-04-23T16:43:51.849Z,20.63
2023-04-23T16:46:18.512Z,16.15
2023-04-23T16:48:45.739Z,17.52
2023-04-23T16:51:13.423Z,12.90
2023-04-23T16:53:39.879Z,16.98
2023-04-23T16:56:06.814Z,13.55
2023-04-23T16:58:33.293Z,13.85
2023-04-23T17:00:59.791Z,19.60
2023-04-23T17:03:26.845Z,19.80
2023-04-23T17:06:07.443Z,13.35
2023-04-23T17:08:36.685Z,14.30
2023-04-23T17:11:05.115Z,16.42
2023-04-23T17:13:31.727Z,16.40
2023-04-23T17:15:58.541Z,15.27
2023-04-23T17:18:25.029Z,17.85
2023-04-23T17:20:51.515Z,17.15
2023-04-23T17:23:18.065Z,17.48
2023-04-23T17:25:44.606Z,15.63
2023-04-23T17:28:11.433Z,24.08
2023-04-23T17:30:37.838Z,21.83
2023-04-23T17:33:04.393Z,22.60
2023-04-23T17:35:30.808Z,25.08
2023-04-23T17:37:57.272Z,15.82
2023-04-23T17:40:24.517Z,17.92
2023-04-23T17:42:50.925Z,22.92
2023-04-23T17:45:18.484Z,20.80
2023-04-23T17:47:45.426Z,24.15
2023-04-23T17:50:12.101Z,14.73
2023-04-23T17:52:41.090Z,24.33
2023-04-23T17:55:08.750Z,23.80
2023-04-23T17:57:35.371Z,16.30
2023-04-23T18:00:09.418Z,29.13
2023-04-23T18:02:40.258Z,19.30
2023-04-23T18:05:11.298Z,29.95
2023-04-23T18:07:39.116Z,60.80
2023-04-23T18:10:06.460Z,30.77
2023-04-23T18:12:33.505Z,21.25
2023-04-23T18:15:00.907Z,16.05
2023-04-23T18:17:27.934Z,14.13
2023-04-23T18:19:55.202Z,14.32
2023-04-23T18:22:21.824Z,13.60
2023-04-23T18:24:49.597Z,14.05
2023-04-23T18:27:16.946Z,15.25
2023-04-23T18:29:44.351Z,15.73
2023-04-23T18:32:15.881Z,15.45
2023-04-23T18:34:47.649Z,13.05
2023-04-23T18:37:31.847Z,14.70
2023-04-23T18:39:58.489Z,14.70
2023-04-23T18:42:24.878Z,11.88
2023-04-23T18:44:51.264Z,12.55
2023-04-23T18:47:18.923Z,14.73
2023-04-23T18:49:57.074Z,14.23
2023-04-23T18:52:23.575Z,16.42
2023-04-23T18:54:50.060Z,14.70
2023-04-23T18:57:16.480Z,16.75
2023-04-23T18:59:43.131Z,14.80
2023-04-23T19:02:14.496Z,14.60
2023-04-23T19:04:43.105Z,12.55
2023-04-23T19:07:09.672Z,10.35
2023-04-23T19:09:36.156Z,7.82
2023-04-23T19:12:02.581Z,8.68
2023-04-23T19:14:29.032Z,5.00
2023-04-23T19:16:55.848Z,4.75
2023-04-23T19:19:24.255Z,7.43
2023-04-23T19:21:51.118Z,4.18
2023-04-23T19:24:17.582Z,3.70
2023-04-23T19:26:45.710Z,5.93
2023-04-23T19:29:12.137Z,4.53
2023-04-23T19:31:38.690Z,2.83
2023-04-23T19:34:05.055Z,3.33
2023-04-23T19:36:32.479Z,2.10
2023-04-23T19:38:59.025Z,3.60
2023-04-23T19:41:26.074Z,3.17
2023-04-23T19:43:52.609Z,3.95
2023-04-23T19:46:19.048Z,4.05
2023-04-23T19:48:45.675Z,3.15
2023-04-23T19:51:12.159Z,2.97
2023-04-23T19:53:38.591Z,5.90
2023-04-23T19:56:08.341Z,2.60
2023-04-23T19:58:34.761Z,4.55
2023-04-23T20:01:01.203Z,2.05
2023-04-23T20:03:27.979Z,4.18
2023-04-23T20:05:58.140Z,4.35
2023-04-23T20:08:29.559Z,2.78
2023-04-23T20:10:56.371Z,4.05
2023-04-23T20:13:23.907Z,4.43
2023-04-23T20:15:50.465Z,2.67
2023-04-23T20:18:18.333Z,2.65
2023-04-23T20:20:44.775Z,2.25
2023-04-23T20:23:11.271Z,2.00
2023-04-23T20:25:37.851Z,4.13
2023-04-23T20:28:05.090Z,6.93
2023-04-23T20:30:31.638Z,3.78
2023-04-23T20:32:58.177Z,5.15
2023-04-23T20:35:24.757Z,2.67
2023-04-23T20:37:54.422Z,2.40
2023-04-23T20:40:20.933Z,3.35
2023-04-23T20:42:51.452Z,3.83
2023-04-23T20:45:19.231Z,3.85
2023-04-23T20:47:46.935Z,3.42
2023-04-23T20:50:14.188Z,6.10
2023-04-23T20:52:40.719Z,3.40
2023-04-23T20:55:07.774Z,7.32
2023-04-23T20:57:34.330Z,2.15
2023-04-23T21:00:00.846Z,2.38
2023-04-23T21:02:27.416Z,2.30
2023-04-23T21:04:53.902Z,4.10
2023-04-23T21:07:20.306Z,3.38
2023-04-23T21:09:46.991Z,4.32
2023-04-23T21:12:13.570Z,3.85
2023-04-23T21:14:40.217Z,2.95
2023-04-23T21:17:06.688Z,5.22
2023-04-23T21:19:33.189Z,2.97
2023-04-23T21:21:59.614Z,19.92
2023-04-23T21:24:26.065Z,3.80
2023-04-23T21:26:52.528Z,2.92
2023-04-23T21:29:19.164Z,2.65
2023-04-23T21:31:47.019Z,4.90
2023-04-23T21:34:15.156Z,9.55
2023-04-23T21:36:41.902Z,5.95
2023-04-23T21:39:08.369Z,4.65
2023-04-23T21:41:35.947Z,4.55
2023-04-23T21:44:02.523Z,2.25
2023-04-23T21:46:30.297Z,4.57
2023-04-23T21:48:56.746Z,3.05
2023-04-23T21:51:23.345Z,3.17
2023-04-23T21:53:49.799Z,7.28
2023-04-23T21:56:16.323Z,4.00
2023-04-23T21:58:43.751Z,7.65
2023-04-23T22:01:10.274Z,2.50
2023-04-23T22:03:39.405Z,3.00
2023-04-23T22:06:06.806Z,3.53
2023-04-23T22:08:33.553Z,2.88
2023-04-23T22:10:59.975Z,3.60
2023-04-23T22:13:26.752Z,3.42
2023-04-23T22:15:53.219Z,2.78
2023-04-23T22:18:19.800Z,3.47
2023-04-23T22:20:49.584Z,5.07
2023-04-23T22:23:16.304Z,6.90
2023-04-23T22:25:42.915Z,6.55
2023-04-23T22:28:09.408Z,3.22
2023-04-23T22:30:35.945Z,3.92
2023-04-23T22:33:02.654Z,5.78
2023-04-23T22:35:29.113Z,3.78
2023-04-23T22:37:55.771Z,4.25
2023-04-23T22:40:22.358Z,4.75
2023-04-23T22:42:48.984Z,6.07
2023-04-23T22:45:15.671Z,8.07
2023-04-23T22:47:42.729Z,6.45
2023-04-23T22:50:09.598Z,5.28
2023-04-23T22:52:35.996Z,4.72
2023-04-23T22:55:02.442Z,6.28
2023-04-23T22:57:29.105Z,8.40
2023-04-23T22:59:55.623Z,15.70
2023-04-23T23:02:22.176Z,9.00
2023-04-23T23:04:49.051Z,7.47
2023-04-23T23:07:15.544Z,6.72
2023-04-23T23:09:42.270Z,12.48
2023-04-23T23:12:09.021Z,6.40
2023-04-23T23:14:37.870Z,6.80
2023-04-23T23:17:06.376Z,6.63
2023-04-23T23:19:32.924Z,8.68
2023-04-23T23:21:59.466Z,8.10
2023-04-23T23:24:25.908Z,11.63
2023-04-23T23:26:52.392Z,13.07
2023-04-23T23:29:18.890Z,8.32
2023-04-23T23:31:45.588Z,8.18
2023-04-23T23:34:12.433Z,9.70
2023-04-23T23:36:38.895Z,11.35
2023-04-23T23:39:06.557Z,8.18
2023-04-23T23:41:33.189Z,8.02
2023-04-23T23:43:59.558Z,7.13
2023-04-23T23:46:26.041Z,7.38
2023-04-23T23:48:53.222Z,8.95
2023-04-23T23:51:19.760Z,7.78
2023-04-23T23:53:46.197Z,5.38
2023-04-23T23:56:12.577Z,5.50
2023-04-23T23:58:39.007Z,8.82
